createdAt,value
2023-09-27T00:00:30.257Z,41.50
2023-09-27T00:01:31.927Z,41.38
2023-09-27T00:02:33.763Z,41.18
2023-09-27T00:03:35.547Z,41.41
2023-09-27T00:04:37.299Z,42.05
2023-09-27T00:05:39.334Z,41.80
2023-09-27T00:06:42.331Z,41.71
2023-09-27T00:07:44.177Z,41.70
2023-09-27T00:08:46.010Z,41.44
2023-09-27T00:09:48.110Z,41.24
2023-09-27T00:10:49.934Z,41.60
2023-09-27T00:11:51.743Z,42.06
2023-09-27T00:12:53.529Z,42.44
2023-09-27T00:13:55.260Z,42.57
2023-09-27T00:14:58.288Z,42.13
2023-09-27T00:16:00.010Z,42.22
2023-09-27T00:17:02.061Z,42.69
2023-09-27T00:18:06.006Z,42.76
2023-09-27T00:19:07.732Z,42.45
2023-09-27T00:20:13.621Z,42.69
2023-09-27T00:21:15.324Z,42.45
2023-09-27T00:22:17.091Z,42.76
2023-09-27T00:23:19.420Z,42.88
2023-09-27T00:24:21.213Z,43.11
2023-09-27T00:25:23.176Z,42.34
2023-09-27T00:26:25.195Z,42.72
2023-09-27T00:27:27.457Z,42.73
2023-09-27T00:28:29.190Z,42.37
2023-09-27T00:29:30.845Z,42.19
2023-09-27T00:30:32.569Z,41.95
2023-09-27T00:31:34.332Z,42.31
2023-09-27T00:32:36.829Z,42.08
2023-09-27T00:33:38.576Z,41.78
2023-09-27T00:34:40.279Z,42.14
2023-09-27T00:35:41.912Z,41.89
2023-09-27T00:36:43.624Z,41.52
2023-09-27T00:37:45.797Z,41.94
2023-09-27T00:38:47.418Z,42.03
2023-09-27T00:39:49.036Z,41.64
2023-09-27T00:40:51.746Z,41.69
2023-09-27T00:41:53.587Z,41.22
2023-09-27T00:42:55.246Z,41.31
2023-09-27T00:43:56.942Z,41.40
2023-09-27T00:44:58.735Z,41.19
2023-09-27T00:46:07.564Z,41.26
2023-09-27T00:47:09.360Z,41.26
2023-09-27T00:48:11.165Z,41.15
2023-09-27T00:49:15.572Z,40.91
2023-09-27T00:50:17.849Z,41.42
2023-09-27T00:51:19.803Z,41.39
2023-09-27T00:52:21.637Z,41.21
2023-09-27T00:53:26.668Z,41.07
2023-09-27T00:54:29.110Z,41.25
2023-09-27T00:55:31.298Z,41.31
2023-09-27T00:56:34.071Z,41.14
2023-09-27T00:57:35.946Z,41.10
2023-09-27T00:58:38.107Z,41.06
2023-09-27T00:59:39.820Z,41.08
2023-09-27T01:00:41.489Z,41.13
2023-09-27T01:01:43.486Z,41.21
2023-09-27T01:02:45.428Z,40.89
2023-09-27T01:03:48.354Z,41.04
2023-09-27T01:04:50.136Z,40.70
2023-09-27T01:05:52.027Z,40.62
2023-09-27T01:06:53.736Z,40.62
2023-09-27T01:07:55.479Z,40.65
2023-09-27T01:08:57.118Z,40.77
2023-09-27T01:09:58.861Z,40.90
2023-09-27T01:11:02.655Z,40.93
2023-09-27T01:12:05.521Z,40.88
2023-09-27T01:13:08.577Z,40.58
2023-09-27T01:14:10.371Z,40.69
2023-09-27T01:15:12.579Z,40.57
2023-09-27T01:16:14.366Z,40.52
2023-09-27T01:17:16.112Z,40.60
2023-09-27T01:18:17.975Z,41.00
2023-09-27T01:19:20.137Z,40.99
2023-09-27T01:20:22.546Z,40.86
2023-09-27T01:21:24.935Z,40.79
2023-09-27T01:22:26.556Z,40.71
2023-09-27T01:23:29.496Z,40.83
2023-09-27T01:24:31.765Z,40.89
2023-09-27T01:25:36.198Z,40.99
2023-09-27T01:26:38.845Z,41.05
2023-09-27T01:27:41.624Z,40.95
2023-09-27T01:28:46.452Z,41.19
2023-09-27T01:29:48.107Z,41.05
2023-09-27T01:30:49.806Z,41.04
2023-09-27T01:31:51.491Z,41.09
2023-09-27T01:32:53.358Z,40.88
2023-09-27T01:33:55.077Z,40.82
2023-09-27T01:34:56.898Z,40.91
2023-09-27T01:35:58.924Z,40.84
2023-09-27T01:37:00.579Z,40.86
2023-09-27T01:38:03.506Z,40.92
2023-09-27T01:39:09.433Z,41.08
2023-09-27T01:40:11.970Z,40.79
2023-09-27T01:41:14.669Z,41.04
2023-09-27T01:42:16.619Z,41.19
2023-09-27T01:43:18.297Z,40.72
2023-09-27T01:44:20.152Z,40.68
2023-09-27T01:45:22.105Z,40.95
2023-09-27T01:46:23.975Z,40.96
2023-09-27T01:47:25.700Z,40.84
2023-09-27T01:48:27.444Z,40.73
2023-09-27T01:49:29.060Z,40.84
2023-09-27T01:50:33.660Z,40.85
2023-09-27T01:51:35.425Z,41.03
2023-09-27T01:52:37.176Z,40.90
2023-09-27T01:53:38.941Z,41.03
2023-09-27T01:54:40.568Z,40.73
2023-09-27T01:55:42.293Z,40.65
2023-09-27T01:56:43.966Z,40.87
2023-09-27T01:57:49.033Z,40.87
2023-09-27T01:58:50.990Z,40.71
2023-09-27T01:59:52.804Z,40.83
2023-09-27T02:00:54.562Z,40.80
2023-09-27T02:01:56.208Z,40.75
2023-09-27T02:03:00.056Z,40.96
2023-09-27T02:04:01.907Z,40.86
2023-09-27T02:05:03.902Z,40.64
2023-09-27T02:06:05.854Z,40.74
2023-09-27T02:07:07.607Z,40.61
2023-09-27T02:08:12.814Z,40.75
2023-09-27T02:09:15.458Z,40.83
2023-09-27T02:10:17.283Z,40.42
2023-09-27T02:11:20.666Z,40.69
2023-09-27T02:12:22.464Z,40.99
2023-09-27T02:13:24.106Z,40.77
2023-09-27T02:14:25.966Z,40.61
2023-09-27T02:15:27.712Z,40.82
2023-09-27T02:16:29.381Z,40.90
2023-09-27T02:17:31.124Z,40.78
2023-09-27T02:18:32.790Z,40.92
2023-09-27T02:19:35.572Z,40.44
2023-09-27T02:20:37.644Z,40.59
2023-09-27T02:21:40.109Z,40.85
2023-09-27T02:22:42.767Z,40.76
2023-09-27T02:23:44.460Z,40.82
2023-09-27T02:24:46.074Z,40.99
2023-09-27T02:25:57.805Z,41.05
2023-09-27T02:26:59.571Z,40.99
2023-09-27T02:28:01.217Z,40.67
2023-09-27T02:29:03.272Z,40.50
2023-09-27T02:30:07.662Z,40.41
2023-09-27T02:31:11.270Z,40.58
2023-09-27T02:32:13.024Z,40.68
2023-09-27T02:33:14.807Z,40.69
2023-09-27T02:34:18.010Z,40.44
2023-09-27T02:35:21.033Z,40.42
2023-09-27T02:36:22.712Z,40.19
2023-09-27T02:37:25.364Z,40.40
2023-09-27T02:38:27.393Z,40.72
2023-09-27T02:39:30.149Z,40.75
2023-09-27T02:40:31.780Z,40.38
2023-09-27T02:41:33.519Z,40.74
2023-09-27T02:42:35.516Z,40.91
2023-09-27T02:43:37.153Z,40.66
2023-09-27T02:44:39.273Z,40.56
2023-09-27T02:45:41.255Z,40.57
2023-09-27T02:46:42.917Z,40.75
2023-09-27T02:47:48.009Z,40.68
2023-09-27T02:48:50.139Z,40.71
2023-09-27T02:49:51.889Z,40.67
2023-09-27T02:50:56.530Z,40.65
2023-09-27T02:51:58.190Z,40.60
2023-09-27T02:53:00.003Z,40.60
2023-09-27T02:54:01.742Z,40.57
2023-09-27T02:55:03.712Z,40.39
2023-09-27T02:56:06.488Z,40.55
2023-09-27T02:57:08.464Z,40.42
2023-09-27T02:58:10.143Z,40.33
2023-09-27T02:59:12.406Z,40.31
2023-09-27T03:00:14.460Z,40.28
2023-09-27T03:01:16.300Z,40.25
2023-09-27T03:02:18.068Z,40.17
2023-09-27T03:03:20.832Z,40.25
2023-09-27T03:04:22.673Z,40.14
2023-09-27T03:05:24.882Z,39.99
2023-09-27T03:06:26.954Z,40.10
2023-09-27T03:07:28.658Z,40.03
2023-09-27T03:08:31.250Z,40.25
2023-09-27T03:09:33.039Z,39.92
2023-09-27T03:10:39.910Z,40.24
2023-09-27T03:11:43.558Z,39.90
2023-09-27T03:12:49.514Z,39.98
2023-09-27T03:13:51.163Z,39.75
2023-09-27T03:14:52.887Z,39.61
2023-09-27T03:15:58.385Z,39.66
2023-09-27T03:17:01.740Z,39.32
2023-09-27T03:18:04.541Z,39.42
2023-09-27T03:19:06.315Z,39.63
2023-09-27T03:20:10.563Z,39.23
2023-09-27T03:21:12.277Z,39.39
2023-09-27T03:22:13.932Z,39.38
2023-09-27T03:23:15.625Z,39.42
2023-09-27T03:24:17.351Z,39.45
2023-09-27T03:25:19.725Z,39.66
2023-09-27T03:26:23.753Z,39.28
2023-09-27T03:27:25.867Z,39.39
2023-09-27T03:28:27.552Z,39.38
2023-09-27T03:29:30.179Z,39.20
2023-09-27T03:30:31.788Z,39.30
2023-09-27T03:31:33.796Z,39.44
2023-09-27T03:32:36.014Z,39.18
2023-09-27T03:33:37.773Z,39.30
2023-09-27T03:34:39.814Z,39.13
2023-09-27T03:35:42.496Z,39.18
2023-09-27T03:36:45.493Z,39.10
2023-09-27T03:37:48.213Z,38.74
2023-09-27T03:38:50.882Z,38.77
2023-09-27T03:39:56.995Z,38.73
2023-09-27T03:40:58.728Z,38.98
2023-09-27T03:42:00.397Z,39.03
2023-09-27T03:43:02.079Z,39.23
2023-09-27T03:44:04.353Z,39.30
2023-09-27T03:45:06.872Z,39.07
2023-09-27T03:46:08.678Z,38.89
2023-09-27T03:47:10.410Z,39.21
2023-09-27T03:48:12.464Z,39.38
2023-09-27T03:49:14.228Z,39.18
2023-09-27T03:50:16.262Z,39.29
2023-09-27T03:51:25.621Z,39.06
2023-09-27T03:52:27.237Z,39.32
2023-09-27T03:53:29.035Z,38.91
2023-09-27T03:54:30.648Z,39.08
2023-09-27T03:55:32.331Z,39.13
2023-09-27T03:56:34.076Z,39.01
2023-09-27T03:57:36.095Z,39.06
2023-09-27T03:58:37.756Z,39.33
2023-09-27T03:59:39.398Z,39.38
2023-09-27T04:00:41.078Z,39.37
2023-09-27T04:01:43.208Z,39.12
2023-09-27T04:02:45.907Z,39.52
2023-09-27T04:03:47.809Z,39.18
2023-09-27T04:04:49.490Z,39.17
2023-09-27T04:05:51.084Z,39.24
2023-09-27T04:06:53.077Z,38.87
2023-09-27T04:08:13.198Z,39.11
2023-09-27T04:09:15.078Z,39.37
2023-09-27T04:10:18.672Z,39.33
2023-09-27T04:11:20.325Z,39.50
2023-09-27T04:12:22.000Z,39.39
2023-09-27T04:13:23.645Z,39.58
2023-09-27T04:14:25.303Z,39.60
2023-09-27T04:15:27.397Z,39.53
2023-09-27T04:16:32.080Z,39.44
2023-09-27T04:17:34.132Z,39.52
2023-09-27T04:18:37.029Z,39.33
2023-09-27T04:19:38.741Z,39.65
2023-09-27T04:20:40.483Z,39.74
2023-09-27T04:21:42.171Z,39.50
2023-09-27T04:22:51.772Z,39.58
2023-09-27T04:23:58.356Z,39.63
2023-09-27T04:25:00.857Z,39.21
2023-09-27T04:26:05.694Z,39.21
2023-09-27T04:27:07.356Z,39.22
2023-09-27T04:28:11.278Z,39.45
2023-09-27T04:29:13.030Z,39.39
2023-09-27T04:30:16.202Z,39.24
2023-09-27T04:31:18.416Z,38.89
2023-09-27T04:32:20.422Z,39.25
2023-09-27T04:33:24.381Z,39.23
2023-09-27T04:34:26.214Z,39.13
2023-09-27T04:35:27.933Z,39.11
2023-09-27T04:36:29.617Z,39.03
2023-09-27T04:37:31.459Z,39.23
2023-09-27T04:38:35.080Z,39.23
2023-09-27T04:39:36.689Z,39.09
2023-09-27T04:40:38.360Z,39.21
2023-09-27T04:41:40.026Z,39.06
2023-09-27T04:42:43.107Z,38.90
2023-09-27T04:43:47.943Z,38.89
2023-09-27T04:44:49.646Z,38.87
2023-09-27T04:45:52.966Z,38.82
2023-09-27T04:46:54.720Z,38.65
2023-09-27T04:47:56.422Z,38.84
2023-09-27T04:48:58.997Z,38.73
2023-09-27T04:50:00.682Z,38.85
2023-09-27T04:51:03.150Z,38.83
2023-09-27T04:52:04.840Z,38.72
2023-09-27T04:53:06.920Z,38.84
2023-09-27T04:54:11.521Z,38.92
2023-09-27T04:55:14.188Z,38.63
2023-09-27T04:56:16.418Z,38.40
2023-09-27T04:57:18.060Z,38.32
2023-09-27T04:58:19.727Z,38.67
2023-09-27T04:59:22.812Z,38.36
2023-09-27T05:00:26.607Z,38.35
2023-09-27T05:01:28.890Z,38.37
2023-09-27T05:02:30.968Z,38.19
2023-09-27T05:03:33.264Z,37.91
2023-09-27T05:04:35.032Z,37.64
2023-09-27T05:05:37.797Z,37.67
2023-09-27T05:06:39.435Z,37.86
2023-09-27T05:07:41.758Z,37.91
2023-09-27T05:08:43.547Z,37.94
2023-09-27T05:09:45.407Z,37.91
2023-09-27T05:10:48.040Z,37.61
2023-09-27T05:11:49.847Z,37.84
2023-09-27T05:12:51.565Z,37.79
2023-09-27T05:13:53.244Z,37.67
2023-09-27T05:14:54.869Z,37.52
2023-09-27T05:15:58.305Z,37.34
2023-09-27T05:17:00.175Z,37.44
2023-09-27T05:18:01.898Z,37.71
2023-09-27T05:19:03.654Z,37.77
2023-09-27T05:20:12.987Z,37.84
2023-09-27T05:21:17.280Z,37.71
2023-09-27T05:22:20.511Z,37.67
2023-09-27T05:23:22.244Z,37.44
2023-09-27T05:24:23.916Z,37.71
2023-09-27T05:25:25.704Z,37.74
2023-09-27T05:26:28.237Z,37.45
2023-09-27T05:27:29.875Z,37.58
2023-09-27T05:28:33.715Z,37.76
2023-09-27T05:29:36.115Z,37.90
2023-09-27T05:30:37.820Z,37.89
2023-09-27T05:31:41.518Z,38.11
2023-09-27T05:32:44.435Z,38.07
2023-09-27T05:33:46.650Z,38.16
2023-09-27T05:34:49.264Z,38.14
2023-09-27T05:35:51.496Z,38.06
2023-09-27T05:36:54.922Z,38.29
2023-09-27T05:37:57.212Z,38.14
2023-09-27T05:38:58.865Z,38.38
2023-09-27T05:40:00.622Z,38.56
2023-09-27T05:41:02.267Z,38.32
2023-09-27T05:42:05.135Z,38.38
2023-09-27T05:43:06.804Z,38.28
2023-09-27T05:44:08.476Z,38.27
2023-09-27T05:45:13.851Z,38.44
2023-09-27T05:46:15.611Z,38.17
2023-09-27T05:47:18.515Z,38.15
2023-09-27T05:48:20.285Z,38.08
2023-09-27T05:49:22.025Z,38.17
2023-09-27T05:50:24.286Z,38.67
2023-09-27T05:51:27.803Z,38.76
2023-09-27T05:52:31.835Z,38.88
2023-09-27T05:53:33.518Z,38.47
2023-09-27T05:54:35.162Z,38.60
2023-09-27T05:55:36.908Z,38.94
2023-09-27T05:56:39.469Z,38.63
2023-09-27T05:57:42.109Z,38.34
2023-09-27T05:58:44.327Z,38.25
2023-09-27T05:59:46.395Z,38.29
2023-09-27T06:00:49.230Z,38.06
2023-09-27T06:01:52.858Z,38.04
2023-09-27T06:02:55.826Z,38.23
2023-09-27T06:03:57.713Z,38.17
2023-09-27T06:05:00.455Z,38.13
2023-09-27T06:06:02.233Z,38.54
2023-09-27T06:07:05.327Z,38.42
2023-09-27T06:08:08.777Z,38.73
2023-09-27T06:09:10.815Z,39.13
2023-09-27T06:10:12.471Z,38.70
2023-09-27T06:11:14.110Z,38.71
2023-09-27T06:12:16.345Z,38.27
2023-09-27T06:13:19.078Z,38.58
2023-09-27T06:14:22.842Z,38.55
2023-09-27T06:15:24.545Z,38.58
2023-09-27T06:16:26.226Z,38.75
2023-09-27T06:17:28.566Z,38.78
2023-09-27T06:18:32.325Z,38.65
2023-09-27T06:19:34.320Z,38.46
2023-09-27T06:20:39.692Z,38.77
2023-09-27T06:21:41.651Z,38.81
2023-09-27T06:22:44.322Z,38.91
2023-09-27T06:23:46.190Z,38.79
2023-09-27T06:24:47.847Z,38.69
2023-09-27T06:25:49.494Z,38.30
2023-09-27T06:26:51.744Z,38.02
2023-09-27T06:27:54.593Z,38.32
2023-09-27T06:28:56.282Z,38.22
2023-09-27T06:29:58.543Z,37.84
2023-09-27T06:31:00.749Z,38.23
2023-09-27T06:32:02.562Z,38.08
2023-09-27T06:33:05.030Z,38.04
2023-09-27T06:34:07.380Z,38.15
2023-09-27T06:35:14.652Z,38.07
2023-09-27T06:36:17.405Z,38.18
2023-09-27T06:37:19.722Z,38.17
2023-09-27T06:38:24.391Z,38.39
2023-09-27T06:39:26.293Z,38.57
2023-09-27T06:40:30.600Z,38.92
2023-09-27T06:41:32.478Z,38.78
2023-09-27T06:42:34.184Z,38.92
2023-09-27T06:43:37.718Z,38.99
2023-09-27T06:44:41.887Z,38.69
2023-09-27T06:45:44.495Z,39.09
2023-09-27T06:46:49.120Z,38.63
2023-09-27T06:47:51.324Z,38.81
2023-09-27T06:48:54.313Z,38.86
2023-09-27T06:49:56.705Z,38.96
2023-09-27T06:50:58.320Z,39.02
2023-09-27T06:51:59.947Z,39.01
2023-09-27T06:53:15.719Z,38.86
2023-09-27T06:54:23.355Z,38.57
2023-09-27T06:55:25.280Z,38.34
2023-09-27T06:56:26.988Z,38.55
2023-09-27T06:57:28.867Z,38.46
2023-09-27T06:58:31.249Z,38.40
2023-09-27T06:59:33.298Z,38.40
2023-09-27T07:00:35.084Z,38.25
2023-09-27T07:01:36.829Z,38.35
2023-09-27T07:02:42.548Z,38.35
2023-09-27T07:03:44.460Z,38.46
2023-09-27T07:04:47.551Z,38.13
2023-09-27T07:05:49.339Z,38.39
2023-09-27T07:06:51.013Z,38.41
2023-09-27T07:07:54.376Z,39.21
2023-09-27T07:08:59.343Z,39.83
2023-09-27T07:10:01.176Z,39.81
2023-09-27T07:11:07.161Z,41.57
2023-09-27T07:12:09.552Z,40.82
2023-09-27T07:13:11.231Z,40.85
2023-09-27T07:14:18.822Z,40.43
2023-09-27T07:15:20.673Z,40.31
2023-09-27T07:16:27.867Z,39.17
2023-09-27T07:17:30.423Z,39.01
2023-09-27T07:18:32.310Z,38.90
2023-09-27T07:19:34.057Z,38.77
2023-09-27T07:20:36.163Z,38.46
2023-09-27T07:21:38.245Z,38.17
2023-09-27T07:22:39.913Z,37.86
2023-09-27T07:23:41.741Z,38.32
2023-09-27T07:24:44.097Z,38.23
2023-09-27T07:25:46.039Z,38.13
2023-09-27T07:26:50.060Z,37.88
2023-09-27T07:27:56.081Z,37.88
2023-09-27T07:28:57.787Z,37.67
2023-09-27T07:29:59.451Z,37.62
2023-09-27T07:31:01.132Z,37.79
2023-09-27T07:32:03.221Z,37.79
2023-09-27T07:33:12.699Z,37.40
2023-09-27T07:34:15.227Z,37.52
2023-09-27T07:35:18.203Z,37.19
2023-09-27T07:36:22.134Z,37.42
2023-09-27T07:37:23.874Z,37.34
2023-09-27T07:38:27.027Z,37.46
2023-09-27T07:39:28.763Z,37.44
2023-09-27T07:40:30.886Z,37.04
2023-09-27T07:41:33.221Z,37.41
2023-09-27T07:42:34.929Z,37.62
2023-09-27T07:43:38.194Z,37.22
2023-09-27T07:44:40.402Z,37.41
2023-09-27T07:45:43.848Z,37.25
2023-09-27T07:46:45.978Z,37.27
2023-09-27T07:47:54.272Z,36.98
2023-09-27T07:48:56.162Z,37.22
2023-09-27T07:49:57.900Z,37.12
2023-09-27T07:51:00.244Z,37.11
2023-09-27T07:52:01.963Z,37.35
2023-09-27T07:53:07.656Z,37.32
2023-09-27T07:54:09.926Z,37.37
2023-09-27T07:55:13.380Z,37.51
2023-09-27T07:56:23.507Z,37.43
2023-09-27T07:57:25.576Z,37.64
2023-09-27T07:58:27.286Z,37.58
2023-09-27T07:59:29.709Z,37.64
2023-09-27T08:00:31.651Z,37.74
2023-09-27T08:01:34.552Z,37.43
2023-09-27T08:02:36.360Z,37.65
2023-09-27T08:03:39.858Z,37.57
2023-09-27T08:04:41.907Z,37.50
2023-09-27T08:05:45.003Z,37.56
2023-09-27T08:06:47.738Z,37.46
2023-09-27T08:07:50.232Z,37.58
2023-09-27T08:08:53.538Z,37.56
2023-09-27T08:10:00.915Z,37.46
2023-09-27T08:11:08.213Z,37.02
2023-09-27T08:12:09.832Z,36.84
2023-09-27T08:13:13.087Z,37.06
2023-09-27T08:14:17.373Z,36.89
2023-09-27T08:15:19.517Z,36.61
2023-09-27T08:16:21.484Z,36.51
2023-09-27T08:17:23.191Z,36.76
2023-09-27T08:18:26.807Z,36.60
2023-09-27T08:19:28.545Z,36.59
2023-09-27T08:20:30.243Z,36.45
2023-09-27T08:21:31.936Z,36.35
2023-09-27T08:22:37.141Z,36.19
2023-09-27T08:23:38.975Z,36.50
2023-09-27T08:24:40.681Z,36.44
2023-09-27T08:25:42.407Z,36.19
2023-09-27T08:26:46.207Z,36.31
2023-09-27T08:27:51.989Z,36.20
2023-09-27T08:28:53.928Z,36.17
2023-09-27T08:29:55.946Z,36.54
2023-09-27T08:31:01.356Z,36.19
2023-09-27T08:32:03.300Z,36.48
2023-09-27T08:33:05.861Z,35.94
2023-09-27T08:34:07.567Z,36.03
2023-09-27T08:35:09.761Z,35.66
2023-09-27T08:36:12.403Z,35.04
2023-09-27T08:37:14.131Z,35.62
2023-09-27T08:38:15.881Z,35.07
2023-09-27T08:39:17.591Z,34.86
2023-09-27T08:40:19.413Z,33.91
2023-09-27T08:41:24.273Z,34.02
2023-09-27T08:42:27.207Z,34.75
2023-09-27T08:43:30.669Z,33.96
2023-09-27T08:44:33.941Z,34.23
2023-09-27T08:45:39.554Z,33.83
2023-09-27T08:46:41.801Z,34.20
2023-09-27T08:47:46.305Z,34.03
2023-09-27T08:48:49.918Z,34.19
2023-09-27T08:49:52.266Z,34.13
2023-09-27T08:50:56.064Z,33.63
2023-09-27T08:51:59.031Z,33.45
2023-09-27T08:53:00.775Z,33.10
2023-09-27T08:54:02.606Z,33.16
2023-09-27T08:55:05.141Z,33.58
2023-09-27T08:56:07.807Z,34.10
2023-09-27T08:57:10.673Z,33.89
2023-09-27T08:58:14.992Z,33.54
2023-09-27T08:59:16.946Z,33.24
2023-09-27T09:00:27.585Z,33.61
2023-09-27T09:01:29.925Z,33.65
2023-09-27T09:02:31.737Z,34.28
2023-09-27T09:03:34.233Z,34.49
2023-09-27T09:04:36.842Z,34.75
2023-09-27T09:05:39.885Z,35.11
2023-09-27T09:06:41.983Z,35.17
2023-09-27T09:07:46.267Z,35.21
2023-09-27T09:08:48.289Z,35.26
2023-09-27T09:09:50.053Z,35.30
2023-09-27T09:10:54.583Z,35.55
2023-09-27T09:12:01.397Z,35.37
2023-09-27T09:13:05.033Z,35.30
2023-09-27T09:14:06.872Z,35.61
2023-09-27T09:15:16.867Z,35.31
2023-09-27T09:16:24.751Z,35.08
2023-09-27T09:17:35.688Z,35.49
2023-09-27T09:18:40.902Z,35.37
2023-09-27T09:19:45.518Z,35.48
2023-09-27T09:20:56.124Z,35.73
2023-09-27T09:22:01.508Z,35.42
2023-09-27T09:23:13.828Z,35.59
2023-09-27T09:24:21.823Z,35.52
2023-09-27T09:25:26.631Z,35.52
2023-09-27T09:26:30.840Z,35.75
2023-09-27T09:27:34.191Z,35.80
2023-09-27T09:28:37.657Z,35.66
2023-09-27T09:29:53.739Z,35.69
2023-09-27T09:30:55.461Z,35.64
2023-09-27T09:31:59.808Z,35.35
2023-09-27T09:33:01.598Z,34.99
2023-09-27T09:34:04.566Z,35.15
2023-09-27T09:35:09.961Z,35.15
2023-09-27T09:36:11.670Z,35.19
2023-09-27T09:37:24.705Z,35.56
2023-09-27T09:38:30.358Z,35.54
2023-09-27T09:39:32.376Z,35.10
2023-09-27T09:40:35.416Z,35.38
2023-09-27T09:41:53.923Z,35.21
2023-09-27T09:42:59.740Z,35.02
2023-09-27T09:44:19.356Z,34.95
2023-09-27T09:45:21.428Z,35.13
2023-09-27T09:46:25.483Z,34.93
2023-09-27T09:47:29.257Z,34.87
2023-09-27T09:48:33.310Z,34.94
2023-09-27T09:49:36.241Z,35.27
2023-09-27T09:50:37.918Z,35.13
2023-09-27T09:51:42.879Z,35.14
2023-09-27T09:52:52.973Z,34.79
2023-09-27T09:53:55.953Z,35.29
2023-09-27T09:55:18.024Z,35.57
2023-09-27T09:57:44.860Z,34.77
2023-09-27T09:59:06.101Z,34.59
2023-09-27T10:00:19.840Z,34.74
2023-09-27T10:01:23.164Z,34.53
2023-09-27T10:02:28.833Z,34.69
2023-09-27T10:03:35.185Z,34.47
2023-09-27T10:04:38.414Z,34.62
2023-09-27T10:05:41.116Z,34.72
2023-09-27T10:06:49.313Z,34.65
2023-09-27T10:07:52.549Z,34.91
2023-09-27T10:08:55.037Z,34.67
2023-09-27T10:09:58.538Z,34.94
2023-09-27T10:11:06.963Z,34.91
2023-09-27T10:12:11.692Z,34.58
2023-09-27T10:13:14.926Z,34.84
2023-09-27T10:14:19.114Z,34.98
2023-09-27T10:15:23.393Z,34.69
2023-09-27T10:16:25.708Z,34.56
2023-09-27T10:17:28.017Z,34.56
2023-09-27T10:18:31.178Z,34.79
2023-09-27T10:19:32.913Z,34.65
2023-09-27T10:20:34.611Z,34.85
2023-09-27T10:21:47.573Z,34.96
2023-09-27T10:22:50.332Z,35.08
2023-09-27T10:23:54.490Z,35.00
2023-09-27T10:24:56.128Z,34.52
2023-09-27T10:26:17.967Z,34.71
2023-09-27T10:27:20.126Z,34.82
2023-09-27T10:28:21.756Z,34.45
2023-09-27T10:29:23.922Z,34.41
2023-09-27T10:30:25.990Z,34.23
2023-09-27T10:31:31.407Z,34.23
2023-09-27T10:32:33.140Z,34.16
2023-09-27T10:33:35.795Z,34.00
2023-09-27T10:34:41.393Z,34.32
2023-09-27T10:35:48.350Z,34.63
2023-09-27T10:36:59.573Z,35.00
2023-09-27T10:38:10.587Z,34.64
2023-09-27T10:39:12.408Z,34.73
2023-09-27T10:40:22.127Z,34.64
2023-09-27T10:41:33.532Z,34.20
2023-09-27T10:42:44.079Z,34.22
2023-09-27T10:43:47.404Z,34.17
2023-09-27T10:44:51.458Z,34.06
2023-09-27T10:45:57.305Z,33.88
2023-09-27T10:47:02.235Z,33.86
2023-09-27T10:48:20.387Z,34.26
2023-09-27T10:49:26.999Z,34.54
2023-09-27T10:50:30.980Z,34.11
2023-09-27T10:51:33.227Z,34.02
2023-09-27T10:52:34.918Z,34.22
2023-09-27T10:53:36.543Z,34.37
2023-09-27T10:54:40.039Z,34.74
2023-09-27T10:55:42.025Z,34.83
2023-09-27T10:56:46.123Z,34.73
2023-09-27T10:57:47.900Z,34.93
2023-09-27T10:58:53.279Z,34.81
2023-09-27T10:59:55.650Z,34.97
2023-09-27T11:01:05.953Z,35.04
2023-09-27T11:02:08.306Z,34.75
2023-09-27T11:03:20.165Z,34.86
2023-09-27T11:04:24.198Z,34.43
2023-09-27T11:05:27.156Z,34.50
2023-09-27T11:06:32.623Z,34.80
2023-09-27T11:07:48.471Z,34.91
2023-09-27T11:08:50.191Z,34.47
2023-09-27T11:09:53.789Z,34.79
2023-09-27T11:10:58.139Z,34.80
2023-09-27T11:12:00.506Z,34.76
2023-09-27T11:13:13.881Z,34.61
2023-09-27T11:14:31.154Z,34.62
2023-09-27T11:15:32.863Z,34.67
2023-09-27T11:16:34.729Z,34.86
2023-09-27T11:17:36.543Z,34.93
2023-09-27T11:18:47.815Z,35.31
2023-09-27T11:19:50.442Z,35.13
2023-09-27T11:20:52.167Z,35.17
2023-09-27T11:21:53.899Z,35.37
2023-09-27T11:22:59.883Z,35.20
2023-09-27T11:24:04.586Z,35.18
2023-09-27T11:25:27.399Z,35.19
2023-09-27T11:26:33.110Z,35.02
2023-09-27T11:27:34.927Z,34.81
2023-09-27T11:28:36.628Z,34.84
2023-09-27T11:29:38.763Z,34.90
2023-09-27T11:30:40.431Z,34.80
2023-09-27T11:31:42.165Z,34.88
2023-09-27T11:32:53.244Z,34.86
2023-09-27T11:34:20.618Z,35.02
2023-09-27T11:35:22.530Z,34.80
2023-09-27T11:36:24.286Z,34.83
2023-09-27T11:37:27.151Z,34.97
2023-09-27T11:38:28.893Z,35.13
2023-09-27T11:39:51.909Z,35.03
2023-09-27T11:40:55.207Z,35.09
2023-09-27T11:42:01.666Z,35.23
2023-09-27T11:43:04.218Z,35.21
2023-09-27T11:44:19.433Z,34.93
2023-09-27T11:45:21.193Z,34.87
2023-09-27T11:46:29.547Z,35.31
2023-09-27T11:47:33.718Z,35.23
2023-09-27T11:48:36.137Z,35.35
2023-09-27T11:49:38.126Z,35.35
2023-09-27T11:50:39.886Z,34.97
2023-09-27T11:51:41.620Z,34.72
2023-09-27T11:52:48.090Z,34.83
2023-09-27T11:53:49.940Z,34.64
2023-09-27T11:54:54.339Z,34.53
2023-09-27T11:55:56.758Z,34.70
2023-09-27T11:56:59.073Z,34.60
2023-09-27T11:58:01.370Z,34.70
2023-09-27T11:59:07.137Z,34.92
2023-09-27T12:00:10.054Z,34.70
2023-09-27T12:01:13.051Z,34.94
2023-09-27T12:02:28.244Z,34.80
2023-09-27T12:03:32.801Z,34.61
2023-09-27T12:04:35.106Z,34.40
2023-09-27T12:05:38.970Z,34.61
2023-09-27T12:06:41.281Z,34.73
2023-09-27T12:07:44.998Z,34.74
2023-09-27T12:08:47.118Z,34.95
2023-09-27T12:09:48.848Z,34.98
2023-09-27T12:10:50.456Z,34.90
2023-09-27T12:11:52.219Z,34.73
2023-09-27T12:12:55.617Z,34.77
2023-09-27T12:13:57.226Z,34.77
2023-09-27T12:14:58.851Z,34.70
2023-09-27T12:16:00.533Z,34.79
2023-09-27T12:17:02.255Z,35.04
2023-09-27T12:18:04.582Z,35.00
2023-09-27T12:19:06.458Z,34.99
2023-09-27T12:20:15.740Z,34.75
2023-09-27T12:21:25.214Z,35.02
2023-09-27T12:22:29.540Z,34.89
2023-09-27T12:23:31.557Z,34.59
2023-09-27T12:24:33.208Z,34.85
2023-09-27T12:25:35.197Z,34.43
2023-09-27T12:26:37.750Z,34.69
2023-09-27T12:27:39.597Z,34.69
2023-09-27T12:28:42.406Z,34.70
2023-09-27T12:29:44.164Z,35.04
2023-09-27T12:30:45.890Z,34.56
2023-09-27T12:31:47.571Z,34.74
2023-09-27T12:32:49.450Z,34.75
2023-09-27T12:33:51.364Z,34.28
2023-09-27T12:34:53.740Z,34.41
2023-09-27T12:35:55.597Z,34.51
2023-09-27T12:36:57.317Z,34.58
2023-09-27T12:38:00.690Z,34.37
2023-09-27T12:39:03.736Z,34.76
2023-09-27T12:40:05.998Z,35.08
2023-09-27T12:41:11.108Z,35.26
2023-09-27T12:42:14.980Z,34.86
2023-09-27T12:43:22.912Z,34.77
2023-09-27T12:44:24.917Z,34.97
2023-09-27T12:45:27.034Z,34.68
2023-09-27T12:46:30.265Z,34.78
2023-09-27T12:47:35.587Z,34.23
2023-09-27T12:48:38.511Z,34.47
2023-09-27T12:49:45.125Z,34.24
2023-09-27T12:50:47.223Z,34.25
2023-09-27T12:51:52.250Z,34.40
2023-09-27T12:52:56.024Z,34.06
2023-09-27T12:53:58.118Z,34.10
2023-09-27T12:55:03.771Z,34.29
2023-09-27T12:56:07.588Z,34.21
2023-09-27T12:57:09.737Z,34.34
2023-09-27T12:58:13.933Z,34.66
2023-09-27T12:59:16.320Z,34.60
2023-09-27T13:00:19.176Z,34.75
2023-09-27T13:01:22.018Z,34.65
2023-09-27T13:02:24.273Z,35.86
2023-09-27T13:03:26.912Z,35.93
2023-09-27T13:04:29.336Z,35.47
2023-09-27T13:05:31.784Z,35.18
2023-09-27T13:06:34.083Z,36.80
2023-09-27T13:07:36.175Z,36.27
2023-09-27T13:08:38.340Z,36.94
2023-09-27T13:09:40.945Z,37.06
2023-09-27T13:10:42.942Z,37.75
2023-09-27T13:11:48.165Z,37.29
2023-09-27T13:12:50.604Z,37.22
2023-09-27T13:13:52.861Z,37.46
2023-09-27T13:14:57.779Z,37.27
2023-09-27T13:16:05.713Z,36.54
2023-09-27T13:17:08.098Z,37.08
2023-09-27T13:18:10.309Z,37.73
2023-09-27T13:19:12.109Z,36.61
2023-09-27T13:20:13.845Z,36.36
2023-09-27T13:21:16.154Z,37.17
2023-09-27T13:22:18.948Z,36.27
2023-09-27T13:23:20.821Z,36.55
2023-09-27T13:24:22.490Z,36.23
2023-09-27T13:25:24.222Z,35.85
2023-09-27T13:26:27.260Z,35.99
2023-09-27T13:27:29.151Z,36.23
2023-09-27T13:28:31.128Z,36.78
2023-09-27T13:29:32.843Z,36.85
2023-09-27T13:30:36.401Z,37.07
2023-09-27T13:31:38.468Z,37.01
2023-09-27T13:32:40.241Z,37.64
2023-09-27T13:33:46.407Z,37.73
2023-09-27T13:34:50.674Z,38.34
2023-09-27T13:35:53.068Z,37.72
2023-09-27T13:36:54.838Z,37.11